EIN13L EDDF-EKCH
Flight info
| Callsign | EIN13L |
|---|---|
| Flight time | 1h 16m |
| Altitude | 35000 |
| Route | MARUN3W/25C MARUN Y150 TOLGI DCT SAS DCT MAKEL N851 GESKA Z711 MONAK |
| Aircraft | A21N/M-SDE2E3FGHIJ1RWXY/LB1 |
Departure
| Time | 2026-05-04 16:26 |
|---|---|
| Airport | Frankfurt Main Airport (EDDF) |
Arrival
| Time | 2026-05-04 17:42 |
|---|---|
| Airport | Copenhagen Kastrup Airport (EKCH) |
| Time | Latitude | Longitude | Altitude | Speed | Heading |
|---|---|---|---|---|---|
| 2026-05-04 15:32 | 50.04914 | 8.58864 | 367 ft | 0 kts | 160° |
| 2026-05-04 16:14 | 50.04946 | 8.58845 | 369 ft | 4 kts | 166° |
| 2026-05-04 16:14 | 50.04973 | 8.58886 | 366 ft | 4 kts | 250° |
| 2026-05-04 16:15 | 50.04975 | 8.58895 | 365 ft | 0 kts | 250° |
| 2026-05-04 16:21 | 50.04962 | 8.58818 | 364 ft | 7 kts | 254° |
| 2026-05-04 16:22 | 50.04869 | 8.58696 | 366 ft | 11 kts | 162° |
| 2026-05-04 16:22 | 50.04865 | 8.58699 | 367 ft | 0 kts | 157° |
| 2026-05-04 16:23 | 50.04677 | 8.58768 | 364 ft | 23 kts | 188° |
| 2026-05-04 16:24 | 50.04374 | 8.58112 | 367 ft | 79 kts | 251° |
| 2026-05-04 16:25 | 50.03730 | 8.55409 | 452 ft | 170 kts | 251° |
| 2026-05-04 16:26 | 50.01896 | 8.49147 | 2876 ft | 198 kts | 221° |
| 2026-05-04 16:26 | 49.97594 | 8.47419 | 5484 ft | 208 kts | 189° |
| 2026-05-04 16:27 | 49.94651 | 8.46460 | 6890 ft | 233 kts | 197° |
| 2026-05-04 16:28 | 49.90585 | 8.42478 | 9868 ft | 250 kts | 249° |
| 2026-05-04 16:28 | 49.92578 | 8.35225 | 12498 ft | 285 kts | 330° |
| 2026-05-04 16:29 | 50.01075 | 8.30051 | 14158 ft | 372 kts | 337° |
| 2026-05-04 16:30 | 50.09303 | 8.29924 | 14899 ft | 429 kts | 17° |
| 2026-05-04 16:31 | 50.15067 | 8.33050 | 15752 ft | 443 kts | 19° |
| 2026-05-04 16:31 | 50.23902 | 8.37746 | 17185 ft | 454 kts | 18° |
| 2026-05-04 16:32 | 50.33016 | 8.42613 | 18607 ft | 466 kts | 18° |
| 2026-05-04 16:33 | 50.39174 | 8.46001 | 19456 ft | 471 kts | 19° |
| 2026-05-04 16:33 | 50.45400 | 8.49452 | 20323 ft | 477 kts | 19° |
| 2026-05-04 16:34 | 50.51768 | 8.52635 | 21229 ft | 483 kts | 16° |
| 2026-05-04 16:34 | 50.54973 | 8.54173 | 21738 ft | 486 kts | 16° |
| 2026-05-04 16:35 | 50.64733 | 8.58873 | 23044 ft | 494 kts | 15° |
| 2026-05-04 16:35 | 50.74729 | 8.63670 | 24123 ft | 503 kts | 15° |
| 2026-05-04 16:36 | 50.78062 | 8.65430 | 24438 ft | 507 kts | 20° |
| 2026-05-04 16:36 | 50.83964 | 8.71486 | 25147 ft | 510 kts | 44° |
| 2026-05-04 16:37 | 50.88386 | 8.80160 | 25900 ft | 508 kts | 53° |
| 2026-05-04 16:37 | 50.90508 | 8.84638 | 26344 ft | 507 kts | 53° |
| 2026-05-04 16:37 | 50.94756 | 8.93571 | 27305 ft | 506 kts | 53° |
| 2026-05-04 16:38 | 50.98989 | 9.02499 | 28299 ft | 505 kts | 53° |
| 2026-05-04 16:39 | 51.05343 | 9.15881 | 29634 ft | 505 kts | 54° |
| 2026-05-04 16:39 | 51.09830 | 9.24376 | 30496 ft | 504 kts | 41° |
| 2026-05-04 16:40 | 51.15872 | 9.29767 | 31257 ft | 497 kts | 14° |
| 2026-05-04 16:40 | 51.22583 | 9.32178 | 32103 ft | 492 kts | 8° |
| 2026-05-04 16:41 | 51.29268 | 9.34449 | 32906 ft | 490 kts | 9° |
| 2026-05-04 16:41 | 51.39258 | 9.37929 | 34042 ft | 487 kts | 9° |
| 2026-05-04 16:42 | 51.49143 | 9.41370 | 34877 ft | 486 kts | 9° |
| 2026-05-04 16:43 | 51.55752 | 9.43695 | 34992 ft | 484 kts | 9° |
| 2026-05-04 16:43 | 51.65627 | 9.47177 | 34954 ft | 484 kts | 9° |
| 2026-05-04 16:45 | 51.85255 | 9.55171 | 34942 ft | 492 kts | 23° |
| 2026-05-04 16:46 | 52.00501 | 9.67863 | 34953 ft | 493 kts | 24° |
| 2026-05-04 16:47 | 52.12709 | 9.78047 | 34971 ft | 493 kts | 24° |
| 2026-05-04 16:48 | 52.24934 | 9.88307 | 34960 ft | 496 kts | 24° |
| 2026-05-04 16:49 | 52.37234 | 9.98457 | 34977 ft | 495 kts | 23° |
| 2026-05-04 16:50 | 52.49501 | 10.08635 | 34934 ft | 495 kts | 23° |
| 2026-05-04 16:51 | 52.58723 | 10.16327 | 34949 ft | 495 kts | 22° |
| 2026-05-04 16:52 | 52.70992 | 10.26620 | 34945 ft | 494 kts | 22° |
| 2026-05-04 16:53 | 52.80144 | 10.34356 | 34964 ft | 494 kts | 22° |
| 2026-05-04 16:54 | 52.92371 | 10.44726 | 34959 ft | 493 kts | 22° |
| 2026-05-04 16:55 | 53.10693 | 10.60396 | 34967 ft | 493 kts | 22° |
| 2026-05-04 16:56 | 53.25907 | 10.73519 | 34980 ft | 493 kts | 23° |
| 2026-05-04 16:57 | 53.35020 | 10.81445 | 34966 ft | 491 kts | 22° |
| 2026-05-04 16:58 | 53.47144 | 10.92020 | 34964 ft | 492 kts | 22° |
| 2026-05-04 17:00 | 53.65173 | 11.07888 | 34970 ft | 487 kts | 22° |
| 2026-05-04 17:01 | 53.80112 | 11.21186 | 34973 ft | 485 kts | 23° |
| 2026-05-04 17:02 | 53.92034 | 11.31894 | 34977 ft | 485 kts | 23° |
| 2026-05-04 17:03 | 54.00979 | 11.39954 | 34985 ft | 486 kts | 23° |
| 2026-05-04 17:03 | 54.09922 | 11.47995 | 34978 ft | 486 kts | 23° |
| 2026-05-04 17:04 | 54.21859 | 11.58829 | 34682 ft | 480 kts | 23° |
| 2026-05-04 17:05 | 54.27849 | 11.64294 | 32491 ft | 494 kts | 22° |
| 2026-05-04 17:05 | 54.33903 | 11.69850 | 30845 ft | 499 kts | 22° |
| 2026-05-04 17:06 | 54.40087 | 11.75540 | 29305 ft | 512 kts | 22° |
| 2026-05-04 17:06 | 54.43236 | 11.78449 | 29020 ft | 514 kts | 22° |
| 2026-05-04 17:07 | 54.49569 | 11.83673 | 27882 ft | 500 kts | 18° |
| 2026-05-04 17:07 | 54.50626 | 11.84550 | 27298 ft | 507 kts | 21° |
| 2026-05-04 17:07 | 54.55697 | 11.89961 | 25333 ft | 515 kts | 27° |
| 2026-05-04 17:07 | 54.58711 | 11.93323 | 24633 ft | 515 kts | 27° |
| 2026-05-04 17:08 | 54.60702 | 11.95523 | 24263 ft | 514 kts | 27° |
| 2026-05-04 17:08 | 54.67661 | 12.03143 | 22965 ft | 501 kts | 28° |
| 2026-05-04 17:08 | 54.69608 | 12.05270 | 22549 ft | 496 kts | 28° |
| 2026-05-04 17:09 | 54.72509 | 12.08452 | 21966 ft | 489 kts | 28° |
| 2026-05-04 17:09 | 54.75356 | 12.11592 | 20984 ft | 486 kts | 28° |
| 2026-05-04 17:09 | 54.78212 | 12.14755 | 20271 ft | 484 kts | 29° |
| 2026-05-04 17:10 | 54.83820 | 12.20948 | 18918 ft | 472 kts | 29° |
| 2026-05-04 17:10 | 54.91953 | 12.29946 | 16765 ft | 450 kts | 29° |
| 2026-05-04 17:11 | 54.94561 | 12.32833 | 16220 ft | 438 kts | 29° |
| 2026-05-04 17:11 | 54.97077 | 12.35638 | 15798 ft | 418 kts | 29° |
| 2026-05-04 17:11 | 55.01693 | 12.40808 | 15079 ft | 375 kts | 28° |
| 2026-05-04 17:12 | 55.03840 | 12.43210 | 14776 ft | 358 kts | 28° |
| 2026-05-04 17:12 | 55.07866 | 12.47723 | 14047 ft | 331 kts | 28° |
| 2026-05-04 17:13 | 55.13549 | 12.54081 | 12360 ft | 317 kts | 28° |
| 2026-05-04 17:14 | 55.19041 | 12.60259 | 11444 ft | 311 kts | 28° |
| 2026-05-04 17:14 | 55.20854 | 12.62308 | 11193 ft | 309 kts | 28° |
| 2026-05-04 17:14 | 55.24573 | 12.65805 | 10727 ft | 293 kts | 14° |
| 2026-05-04 17:15 | 55.26480 | 12.66890 | 10583 ft | 282 kts | 12° |
| 2026-05-04 17:15 | 55.30142 | 12.68930 | 10055 ft | 272 kts | 13° |
| 2026-05-04 17:16 | 55.33725 | 12.70951 | 9148 ft | 270 kts | 13° |
| 2026-05-04 17:16 | 55.39013 | 12.73982 | 7969 ft | 263 kts | 13° |
| 2026-05-04 17:17 | 55.40723 | 12.74964 | 7628 ft | 261 kts | 13° |
| 2026-05-04 17:17 | 55.45870 | 12.77908 | 6614 ft | 257 kts | 13° |
| 2026-05-04 17:18 | 55.47568 | 12.78879 | 6295 ft | 255 kts | 13° |
| 2026-05-04 17:18 | 55.50924 | 12.80803 | 5644 ft | 250 kts | 14° |
| 2026-05-04 17:19 | 55.54153 | 12.82668 | 5170 ft | 239 kts | 14° |
| 2026-05-04 17:19 | 55.57197 | 12.84883 | 4574 ft | 237 kts | 20° |
| 2026-05-04 17:20 | 55.60196 | 12.87215 | 3992 ft | 234 kts | 20° |
| 2026-05-04 17:20 | 55.63172 | 12.89516 | 3978 ft | 233 kts | 20° |
| 2026-05-04 17:20 | 55.64656 | 12.90688 | 3983 ft | 233 kts | 20° |
| 2026-05-04 17:21 | 55.67657 | 12.92685 | 3943 ft | 222 kts | 1° |
| 2026-05-04 17:21 | 55.70723 | 12.92712 | 3185 ft | 222 kts | 355° |
| 2026-05-04 17:22 | 55.72262 | 12.92631 | 2989 ft | 221 kts | 355° |
| 2026-05-04 17:22 | 55.73762 | 12.92213 | 2954 ft | 214 kts | 333° |
| 2026-05-04 17:23 | 55.75419 | 12.85867 | 2981 ft | 208 kts | 251° |
| 2026-05-04 17:23 | 55.74517 | 12.83873 | 2984 ft | 215 kts | 219° |
| 2026-05-04 17:23 | 55.71957 | 12.81097 | 2539 ft | 212 kts | 218° |
| 2026-05-04 17:24 | 55.70797 | 12.79525 | 2227 ft | 207 kts | 223° |
| 2026-05-04 17:24 | 55.67858 | 12.74974 | 1466 ft | 169 kts | 225° |
| 2026-05-04 17:25 | 55.66997 | 12.73638 | 1213 ft | 160 kts | 225° |
| 2026-05-04 17:25 | 55.65432 | 12.71214 | 815 ft | 146 kts | 225° |
| 2026-05-04 17:26 | 55.63973 | 12.68979 | 447 ft | 128 kts | 224° |
| 2026-05-04 17:26 | 55.61979 | 12.65900 | 27 ft | 117 kts | 226° |
| 2026-05-04 17:27 | 55.60447 | 12.63682 | 1245 ft | 166 kts | 205° |
| 2026-05-04 17:27 | 55.58025 | 12.63679 | 2440 ft | 192 kts | 189° |
| 2026-05-04 17:28 | 55.55058 | 12.63011 | 2972 ft | 224 kts | 191° |
| 2026-05-04 17:29 | 55.50420 | 12.61916 | 3008 ft | 224 kts | 191° |
| 2026-05-04 17:29 | 55.45811 | 12.61804 | 2986 ft | 230 kts | 153° |
| 2026-05-04 17:30 | 55.44252 | 12.69176 | 3012 ft | 232 kts | 77° |
| 2026-05-04 17:31 | 55.45688 | 12.74026 | 2992 ft | 225 kts | 32° |
| 2026-05-04 17:31 | 55.49919 | 12.77705 | 3002 ft | 230 kts | 22° |
| 2026-05-04 17:32 | 55.52795 | 12.80172 | 2997 ft | 229 kts | 23° |
| 2026-05-04 17:33 | 55.57103 | 12.83903 | 2996 ft | 229 kts | 23° |
| 2026-05-04 17:33 | 55.58537 | 12.85146 | 2994 ft | 229 kts | 23° |
| 2026-05-04 17:34 | 55.62794 | 12.88973 | 2999 ft | 231 kts | 31° |
| 2026-05-04 17:34 | 55.64046 | 12.90740 | 2992 ft | 229 kts | 30° |
| 2026-05-04 17:35 | 55.68449 | 12.93749 | 2989 ft | 219 kts | 15° |
| 2026-05-04 17:35 | 55.71192 | 12.95414 | 2970 ft | 206 kts | 15° |
| 2026-05-04 17:35 | 55.72541 | 12.96246 | 2979 ft | 206 kts | 15° |
| 2026-05-04 17:36 | 55.73915 | 12.96864 | 2976 ft | 201 kts | 356° |
| 2026-05-04 17:36 | 55.75215 | 12.96232 | 2978 ft | 196 kts | 324° |
| 2026-05-04 17:36 | 55.76261 | 12.94686 | 2996 ft | 195 kts | 313° |
| 2026-05-04 17:36 | 55.76895 | 12.92606 | 2988 ft | 195 kts | 280° |
| 2026-05-04 17:37 | 55.76784 | 12.90218 | 2992 ft | 197 kts | 252° |
| 2026-05-04 17:37 | 55.76108 | 12.88085 | 3058 ft | 201 kts | 236° |
| 2026-05-04 17:37 | 55.75153 | 12.86238 | 3062 ft | 200 kts | 227° |
| 2026-05-04 17:37 | 55.74137 | 12.84716 | 3006 ft | 180 kts | 226° |
| 2026-05-04 17:38 | 55.73249 | 12.83340 | 2846 ft | 163 kts | 226° |
| 2026-05-04 17:38 | 55.72399 | 12.82019 | 2635 ft | 160 kts | 226° |
| 2026-05-04 17:38 | 55.71564 | 12.80722 | 2417 ft | 160 kts | 226° |
| 2026-05-04 17:38 | 55.70722 | 12.79414 | 2194 ft | 161 kts | 226° |
| 2026-05-04 17:39 | 55.69056 | 12.76830 | 1794 ft | 158 kts | 226° |
| 2026-05-04 17:39 | 55.68239 | 12.75561 | 1571 ft | 158 kts | 225° |
| 2026-05-04 17:39 | 55.67431 | 12.74312 | 1338 ft | 142 kts | 225° |
| 2026-05-04 17:40 | 55.66730 | 12.73225 | 1138 ft | 130 kts | 226° |
| 2026-05-04 17:40 | 55.66060 | 12.72197 | 1001 ft | 129 kts | 225° |
| 2026-05-04 17:40 | 55.65366 | 12.71194 | 798 ft | 129 kts | 224° |
| 2026-05-04 17:40 | 55.64691 | 12.70137 | 598 ft | 129 kts | 227° |
| 2026-05-04 17:41 | 55.64043 | 12.69060 | 449 ft | 127 kts | 227° |
| 2026-05-04 17:41 | 55.63371 | 12.68040 | 272 ft | 128 kts | 224° |
| 2026-05-04 17:41 | 55.62691 | 12.67011 | 102 ft | 128 kts | 226° |
| 2026-05-04 17:41 | 55.62054 | 12.65995 | 24 ft | 107 kts | 222° |
| 2026-05-04 17:42 | 55.61666 | 12.65406 | 23 ft | 18 kts | 225° |
| 2026-05-04 17:42 | 55.61661 | 12.65396 | 23 ft | 1 kts | 225° |
| 2026-05-04 17:42 | 55.61602 | 12.65174 | 24 ft | 30 kts | 270° |
| 2026-05-04 17:42 | 55.61696 | 12.64847 | 26 ft | 27 kts | 321° |
| 2026-05-04 17:43 | 55.61808 | 12.64782 | 27 ft | 18 kts | 3° |
| 2026-05-04 17:43 | 55.61916 | 12.64847 | 27 ft | 0 kts | 31° |
| 2026-05-04 17:44 | 55.61917 | 12.64847 | 27 ft | 1 kts | 31° |
| 2026-05-04 17:44 | 55.61939 | 12.64871 | 25 ft | 6 kts | 32° |
| 2026-05-04 17:44 | 55.61995 | 12.64929 | 25 ft | 13 kts | 18° |
| 2026-05-04 17:45 | 55.62075 | 12.64841 | 26 ft | 16 kts | 302° |
| 2026-05-04 17:45 | 55.62083 | 12.64820 | 26 ft | 0 kts | 302° |
| 2026-05-04 17:45 | 55.62083 | 12.64818 | 26 ft | 1 kts | 302° |
| 2026-05-04 17:46 | 55.62094 | 12.64788 | 32 ft | 5 kts | 302° |
| 2026-05-04 17:46 | 55.62121 | 12.64713 | 26 ft | 9 kts | 302° |
| 2026-05-04 17:46 | 55.62165 | 12.64593 | 26 ft | 13 kts | 303° |
| 2026-05-04 17:46 | 55.62220 | 12.64442 | 24 ft | 16 kts | 303° |
| 2026-05-04 17:47 | 55.62284 | 12.64271 | 24 ft | 18 kts | 304° |
| 2026-05-04 17:47 | 55.62358 | 12.64073 | 24 ft | 20 kts | 302° |
| 2026-05-04 17:47 | 55.62440 | 12.63849 | 26 ft | 23 kts | 303° |
| 2026-05-04 17:47 | 55.62532 | 12.63600 | 27 ft | 25 kts | 303° |
| 2026-05-04 17:48 | 55.62613 | 12.63499 | 27 ft | 0 kts | 7° |
| 2026-05-04 17:49 | 55.62627 | 12.63501 | 27 ft | 4 kts | 356° |
| 2026-05-04 17:49 | 55.62663 | 12.63474 | 27 ft | 7 kts | 324° |
| 2026-05-04 17:49 | 55.62704 | 12.63391 | 27 ft | 11 kts | 304° |
| 2026-05-04 17:49 | 55.62767 | 12.63317 | 27 ft | 14 kts | 19° |
| 2026-05-04 17:50 | 55.62846 | 12.63434 | 28 ft | 16 kts | 70° |
| 2026-05-04 17:50 | 55.62858 | 12.63537 | 28 ft | 3 kts | 66° |
| 2026-05-04 17:50 | 55.62874 | 12.63581 | 28 ft | 6 kts | 47° |
| 2026-05-04 17:50 | 55.62894 | 12.63611 | 28 ft | 0 kts | 40° |
| 2026-05-04 17:51 | 55.62900 | 12.63620 | 28 ft | 0 kts | 41° |